Pays
Station

 

Conditions  météo  pour  Tivat  -  Yougoslavie    Yougoslavie

  
15 °C
    
 
 

METAR pour Tivat :

LYTV 232130Z 16006KT 120V180 9999 FEW026 SCT033 OVC073 15/14 Q1017

 

Voici le bulletin pour Tivat - Yougoslavie.
 
Le bulletin a été fait il y a 30 minutes, à 21:30 UTC .
Le vent soufflait à la vitesse de 3.1 mètres par seconde de Sud/Sud-est (160°), variant entre Est/Sud-est (120°) et Sud (180°).
 
La température était de 15 °C, avec un point de rosée à 14 °C.
La pression atmosphérique était de 1017 hPa.
L'humidité relative était de 93.7%.
 
Il y avait 1 à 2/8ème de nébulosité à une hauteur de 792 mètres et 3 à 4/8ème de nébulosité à une hauteur de 1006 mètres. Le ciel était nuageux à partir d'une hauteur de 2225 mètres
 
La visibilité globale était de supérieure à 10 kilomètres.
 

 
 
 

Pays :   A   B   C   D   E   F   G   H   I   J   K   L   M   N   O   P   Q   R   S   T   U   V   W   Y   Z

 

Partenaires :  Info Météo avec Met'info
Météo Marine avec MeteoMarine.net
Infos Site  |  Infos Légales  |  Crédits  |  Confidentialité
Contactez-nous  |  Ajouter aux favoris
© 2013-2019 METAR - Tous droits réservés